Time;durP1;ratioP1;P1;durP2;ratioP2;P2;SDS_P1;SDS_P2;PMS_P1;PMS_P2;Temp;Humidity;BMP_temperature;BMP_pressure;BME280_temperature;BME280_humidity;BME280_pressure;Samples;Min_cycle;Max_cycle;Signal;HPM_P1;HPM_P2
2022/01/22 00:02:23;;;;;;;12.20;4.80;;;;;;;-3.62;nan;101061.00;5036870;28;20036;-70
2022/01/22 00:04:49;;;;;;;14.63;5.38;;;;;;;-3.67;nan;101048.47;5042319;28;20398;-69
2022/01/22 00:07:14;;;;;;;13.90;4.78;;;;;;;-3.59;nan;101055.66;5031985;28;20140;-69
2022/01/22 00:09:46;;;;;;;11.75;5.07;;;;;;;-3.53;nan;101069.78;5034119;28;20026;-69
2022/01/22 00:12:23;;;;;;;16.02;5.43;;;;;;;-3.52;nan;101061.97;5032798;28;20037;-70
2022/01/22 00:14:49;;;;;;;10.48;5.03;;;;;;;-3.52;nan;101055.97;5034449;28;20395;-70
2022/01/22 00:17:14;;;;;;;14.57;5.05;;;;;;;-3.43;nan;101071.53;5020493;28;20037;-69
2022/01/22 00:19:39;;;;;;;17.40;5.50;;;;;;;-3.47;nan;101059.00;5034599;28;20034;-70
2022/01/22 00:22:05;;;;;;;12.52;4.78;;;;;;;-3.51;nan;101053.28;5015805;28;20033;-70
2022/01/22 00:24:37;;;;;;;13.45;4.00;;;;;;;-3.50;nan;101057.50;5033799;28;20033;-69
2022/01/22 00:27:03;;;;;;;10.45;3.95;;;;;;;-3.49;nan;101058.34;5034608;28;20126;-71
2022/01/22 00:29:28;;;;;;;13.75;5.40;;;;;;;-3.45;nan;101063.13;5034333;28;20551;-70
2022/01/22 00:31:54;;;;;;;11.13;4.03;;;;;;;-3.66;nan;101034.69;5033362;28;20078;-69
2022/01/22 00:34:19;;;;;;;9.20;3.45;;;;;;;-3.36;nan;101076.22;5015643;28;20033;-70
2022/01/22 00:36:44;;;;;;;10.98;3.97;;;;;;;-3.38;nan;101065.22;5009956;28;20368;-70
2022/01/22 00:39:10;;;;;;;12.25;4.35;;;;;;;-3.32;nan;101067.34;5015502;28;20127;-70
2022/01/22 00:41:36;;;;;;;15.45;5.10;;;;;;;-3.31;nan;101068.97;5033962;28;20026;-69
2022/01/22 00:44:01;;;;;;;11.57;3.88;;;;;;;-3.35;nan;101055.53;5033577;28;20034;-69
2022/01/22 00:46:27;;;;;;;12.30;4.05;;;;;;;-3.30;nan;101068.84;5003406;28;20037;-70
2022/01/22 00:48:52;;;;;;;8.20;4.13;;;;;;;-3.41;nan;101045.69;5033172;28;20144;-70
2022/01/22 00:51:18;;;;;;;15.98;4.30;;;;;;;-3.34;nan;101066.63;5033825;28;20120;-69
2022/01/22 00:53:43;;;;;;;9.88;3.83;;;;;;;-3.31;nan;101076.69;5012392;28;20025;-70
2022/01/22 00:56:08;;;;;;;9.40;4.32;;;;;;;-3.34;nan;101072.59;5026767;28;20053;-70
2022/01/22 00:58:34;;;;;;;12.05;4.07;;;;;;;-3.37;nan;101070.25;5032404;28;20029;-70
2022/01/22 01:00:59;;;;;;;13.32;4.38;;;;;;;-3.35;nan;101076.13;5016232;28;20030;-69
2022/01/22 01:03:25;;;;;;;9.85;3.80;;;;;;;-3.43;nan;101065.56;5033580;28;20422;-70
2022/01/22 01:05:50;;;;;;;10.15;4.13;;;;;;;-3.42;nan;101069.81;5033669;28;20347;-70
2022/01/22 01:08:16;;;;;;;9.77;3.92;;;;;;;-3.40;nan;101064.53;5033172;28;20037;-69
2022/01/22 01:10:41;;;;;;;11.48;4.05;;;;;;;-3.36;nan;101076.22;5033363;28;20064;-69
2022/01/22 01:13:07;;;;;;;13.57;3.97;;;;;;;-3.36;nan;101073.66;5033804;28;20033;-69
2022/01/22 01:15:54;;;;;;;12.77;4.60;;;;;;;-3.46;nan;101055.53;5033202;28;20045;-70
2022/01/22 01:34:42;;;;;;;17.23;5.20;;;;;;;-3.45;nan;101036.53;5029629;28;20128;-71
2022/01/22 01:37:08;;;;;;;13.90;4.43;;;;;;;-3.42;nan;101041.47;5032020;28;20095;-71
2022/01/22 01:39:36;;;;;;;16.13;5.10;;;;;;;-3.46;nan;101034.91;5031428;28;20029;-70
2022/01/22 01:42:12;;;;;;;11.70;4.57;;;;;;;-3.48;nan;101031.66;5031007;28;20033;-71
2022/01/22 01:44:39;;;;;;;14.55;5.78;;;;;;;-3.45;nan;101028.81;5032019;28;20101;-71
2022/01/22 01:47:07;;;;;;;721.90;164.68;;;;;;;-3.20;nan;101030.34;5031948;28;20475;-72
2022/01/22 01:49:34;;;;;;;17.98;6.55;;;;;;;-2.82;nan;101029.88;5032316;28;20037;-71
2022/01/22 01:52:02;;;;;;;17.77;5.40;;;;;;;-2.75;nan;101019.06;5031516;28;20041;-70
2022/01/22 01:59:39;;;;;;;9.55;4.22;;;;;;;-3.31;nan;100982.22;5033110;28;20270;-70
2022/01/22 02:02:05;;;;;;;8.85;3.95;;;;;;;-3.11;nan;100995.28;5020192;28;20033;-70
2022/01/22 02:04:31;;;;;;;12.85;3.58;;;;;;;-3.16;nan;100989.69;5040144;28;20196;-71
2022/01/22 02:06:57;;;;;;;12.60;4.60;;;;;;;-3.14;nan;100985.22;5039007;28;20161;-70
2022/01/22 02:09:22;;;;;;;9.23;3.90;;;;;;;-3.17;nan;100973.41;5034066;28;20095;-70
2022/01/22 02:11:57;;;;;;;9.32;3.70;;;;;;;-3.15;nan;100974.13;5032702;28;20029;-70
2022/01/22 02:25:20;;;;;;;9.63;4.00;;;;;;;-3.19;nan;100970.13;5012685;28;20121;-69
2022/01/22 02:27:46;;;;;;;10.07;4.13;;;;;;;-3.38;nan;100942.44;5030529;28;20519;-69
2022/01/22 02:30:18;;;;;;;10.68;3.67;;;;;;;-3.27;nan;100963.03;5032289;28;20033;-70
2022/01/22 02:35:25;;;;;;;9.57;4.40;;;;;;;-3.22;nan;100973.78;5031878;28;20037;-70
2022/01/22 02:38:00;;;;;;;8.20;3.97;;;;;;;-3.46;nan;100934.53;5032509;28;20434;-70
2022/01/22 02:40:33;;;;;;;13.00;4.25;;;;;;;-3.27;nan;100967.38;5031468;28;20394;-70
2022/01/22 02:43:00;;;;;;;10.63;4.75;;;;;;;-3.32;nan;100967.72;5032488;28;20091;-70
2022/01/22 02:45:26;;;;;;;12.20;4.22;;;;;;;-3.24;nan;100978.22;5031967;28;20064;-70
2022/01/22 02:47:52;;;;;;;12.93;4.03;;;;;;;-3.27;nan;100963.03;5032444;28;20032;-70
2022/01/22 02:50:20;;;;;;;9.15;3.85;;;;;;;-3.25;nan;100968.06;5031118;28;20033;-70
2022/01/22 02:52:46;;;;;;;10.07;3.97;;;;;;;-3.32;nan;100962.56;5031138;28;20034;-70
2022/01/22 02:55:14;;;;;;;10.13;4.35;;;;;;;-3.23;nan;100968.75;5031881;28;20049;-70
2022/01/22 02:57:42;;;;;;;7.90;3.88;;;;;;;-3.26;nan;100966.41;5035665;28;20039;-70
2022/01/22 03:00:12;;;;;;;11.43;3.92;;;;;;;-3.22;nan;100972.97;5000566;28;20041;-70
2022/01/22 03:02:39;;;;;;;15.32;4.72;;;;;;;-3.23;nan;100971.34;5038719;28;20036;-69
2022/01/22 03:05:07;;;;;;;11.57;3.88;;;;;;;-3.30;nan;100963.28;5034809;28;20048;-69
2022/01/22 03:07:35;;;;;;;11.93;4.10;;;;;;;-3.22;nan;100967.81;5035983;28;20091;-70
2022/01/22 03:10:03;;;;;;;13.48;4.30;;;;;;;-3.52;nan;100919.53;5035656;28;20044;-70
2022/01/22 03:20:04;;;;;;;9.15;4.82;;;;;;;-3.21;nan;100966.88;5035477;28;20458;-70
2022/01/22 03:27:44;;;;;;;13.10;4.60;;;;;;;-3.32;nan;100923.94;5028818;28;20045;-70
2022/01/22 03:30:10;;;;;;;11.82;4.20;;;;;;;-3.32;nan;100925.72;5035913;28;20048;-70
2022/01/22 03:32:41;;;;;;;14.70;4.90;;;;;;;-3.24;nan;100933.63;5034558;28;20068;-70
2022/01/22 03:35:14;;;;;;;13.00;4.80;;;;;;;-3.27;nan;100937.28;5035349;28;20025;-70
2022/01/22 03:37:41;;;;;;;11.27;4.28;;;;;;;-3.24;nan;100937.03;5035775;28;20533;-70
2022/01/22 03:40:09;;;;;;;12.98;4.63;;;;;;;-3.25;nan;100930.25;5035364;28;20037;-68
2022/01/22 03:42:35;;;;;;;13.05;4.85;;;;;;;-3.34;nan;100915.53;5017564;28;20124;-71
2022/01/22 03:45:03;;;;;;;11.00;4.90;;;;;;;-3.30;nan;100918.69;5035428;28;20128;-71
2022/01/22 03:47:29;;;;;;;10.00;4.68;;;;;;;-3.27;nan;100914.09;5035420;28;20398;-70
2022/01/22 03:49:54;;;;;;;11.57;4.85;;;;;;;-3.28;nan;100904.75;5034117;28;20041;-70
2022/01/22 03:52:19;;;;;;;8.68;4.75;;;;;;;-3.34;nan;100899.25;5034081;28;20056;-69
2022/01/22 03:54:45;;;;;;;12.73;4.90;;;;;;;-3.29;nan;100913.41;5010748;28;20557;-70
2022/01/22 03:57:10;;;;;;;11.05;5.07;;;;;;;-3.37;nan;100900.31;5035055;28;20438;-70
2022/01/22 03:59:36;;;;;;;10.70;4.55;;;;;;;-3.37;nan;100902.91;5035435;28;20033;-70
2022/01/22 04:04:46;;;;;;;12.70;5.35;;;;;;;-3.57;nan;100868.41;5025830;28;20492;-70
2022/01/22 04:09:42;;;;;;;12.63;5.57;;;;;;;-3.50;nan;100887.59;5034259;28;20382;-70
2022/01/22 04:12:10;;;;;;;14.63;5.10;;;;;;;-3.38;nan;100918.47;5035010;28;20040;-68
2022/01/22 04:14:37;;;;;;;14.35;5.30;;;;;;;-3.45;nan;100908.66;5033346;28;20467;-68
2022/01/22 04:24:56;;;;;;;15.07;5.13;;;;;;;-3.53;nan;100897.31;5028036;28;20033;-68
2022/01/22 04:27:27;;;;;;;13.23;5.90;;;;;;;-3.57;nan;100881.28;5012545;28;20049;-69
2022/01/22 04:29:54;;;;;;;9.50;5.05;;;;;;;-3.46;nan;100893.31;5033870;28;20056;-69
2022/01/22 04:32:20;;;;;;;13.35;5.80;;;;;;;-3.46;nan;100898.47;5032565;28;20034;-69
2022/01/22 04:34:46;;;;;;;13.45;5.40;;;;;;;-3.46;nan;100903.63;5034260;28;20033;-68
2022/01/22 04:37:13;;;;;;;13.43;5.03;;;;;;;-3.55;nan;100882.00;5016494;28;20395;-69
2022/01/22 04:39:38;;;;;;;11.48;5.25;;;;;;;-3.50;nan;100887.59;5033173;28;20033;-69
2022/01/22 04:42:04;;;;;;;13.50;5.65;;;;;;;-3.47;nan;100886.53;5033738;28;20111;-69
2022/01/22 04:44:35;;;;;;;12.82;4.78;;;;;;;-3.54;nan;100857.91;5034254;28;20068;-69
2022/01/22 04:57:21;;;;;;;14.23;6.72;;;;;;;-3.68;nan;100835.81;5033997;28;20037;-69
2022/01/22 04:59:46;;;;;;;18.08;6.68;;;;;;;-3.53;nan;100843.25;5022621;28;20034;-69
2022/01/22 05:02:12;;;;;;;15.25;7.13;;;;;;;-3.85;nan;100787.47;5020210;28;20476;-70
2022/01/22 05:04:38;;;;;;;21.27;7.95;;;;;;;-3.55;nan;100821.97;5050281;28;20092;-69
2022/01/22 05:07:03;;;;;;;23.17;8.63;;;;;;;-3.65;nan;100804.69;5022521;28;20037;-69
2022/01/22 05:09:29;;;;;;;20.20;8.77;;;;;;;-3.52;nan;100811.41;5040806;28;20026;-70
2022/01/22 05:11:55;;;;;;;15.65;6.68;;;;;;;-3.51;nan;100801.00;5036002;28;20045;-69
2022/01/22 05:14:20;;;;;;;19.27;7.38;;;;;;;-3.55;nan;100789.31;5006305;28;20053;-69
2022/01/22 05:16:45;;;;;;;20.70;8.45;;;;;;;-3.53;nan;100787.44;5036315;28;20083;-69
2022/01/22 05:19:21;;;;;;;20.17;8.07;;;;;;;-3.57;nan;100778.31;5012221;28;20037;-70
2022/01/22 05:21:48;;;;;;;23.83;7.35;;;;;;;-3.49;nan;100793.19;5015923;28;20029;-69
2022/01/22 05:24:18;;;;;;;18.75;7.07;;;;;;;-3.74;nan;100748.00;5031715;28;20029;-70
2022/01/22 05:27:08;;;;;;;16.95;7.15;;;;;;;-3.51;nan;100780.41;5031605;28;20112;-70
2022/01/22 05:37:31;;;;;;;25.38;10.32;;;;;;;-3.53;nan;100802.06;5031541;28;20033;-69
2022/01/22 05:39:57;;;;;;;21.48;8.65;;;;;;;-3.61;nan;100796.75;5012864;28;20400;-69
2022/01/22 05:42:22;;;;;;;23.90;9.07;;;;;;;-3.57;nan;100805.81;5032322;28;20037;-69
2022/01/22 05:44:48;;;;;;;22.00;8.38;;;;;;;-3.49;nan;100814.59;5032712;28;20033;-69
2022/01/22 05:47:20;;;;;;;18.60;7.70;;;;;;;-3.61;nan;100791.59;5031579;28;20033;-68
2022/01/22 05:49:45;;;;;;;17.48;6.85;;;;;;;-3.58;nan;100799.06;5013828;28;20037;-68
2022/01/22 05:52:13;;;;;;;15.00;7.15;;;;;;;-3.55;nan;100798.81;5014136;28;20053;-69
2022/01/22 05:59:57;;;;;;;12.98;5.40;;;;;;;-3.43;nan;100837.25;5032647;28;20037;-69
2022/01/22 06:02:22;;;;;;;18.33;5.68;;;;;;;-3.52;nan;100826.88;5032825;28;20030;-69
2022/01/22 06:04:48;;;;;;;16.75;5.85;;;;;;;-3.41;nan;100839.69;5032060;28;20090;-70
2022/01/22 06:07:14;;;;;;;14.95;5.45;;;;;;;-3.41;nan;100842.28;5014187;28;20490;-69
2022/01/22 06:09:52;;;;;;;14.30;5.68;;;;;;;-3.41;nan;100852.56;5032105;28;20045;-68
2022/01/22 06:12:28;;;;;;;16.73;7.32;;;;;;;-3.40;nan;100850.81;5030601;28;20098;-68
2022/01/22 06:14:54;;;;;;;18.95;9.68;;;;;;;-3.41;nan;100842.28;5029123;28;20065;-69
2022/01/22 06:17:19;;;;;;;24.20;12.32;;;;;;;-3.44;nan;100829.66;5030061;28;20060;-69
2022/01/22 06:19:44;;;;;;;23.13;9.55;;;;;;;-3.72;nan;100782.16;5032319;28;20044;-68
2022/01/22 06:22:10;;;;;;;23.13;9.00;;;;;;;-3.39;nan;100832.69;5032264;28;20459;-69
2022/01/22 06:24:35;;;;;;;18.65;7.93;;;;;;;-3.48;nan;100821.34;5031837;28;20030;-69
2022/01/22 06:27:01;;;;;;;20.55;8.02;;;;;;;-3.47;nan;100822.16;4996479;28;20053;-68
2022/01/22 06:29:26;;;;;;;18.80;7.40;;;;;;;-3.48;nan;100816.19;4994992;28;20115;-68
2022/01/22 06:31:51;;;;;;;15.07;7.15;;;;;;;-3.52;nan;100806.28;5029876;28;20409;-69
2022/01/22 06:34:17;;;;;;;16.63;7.32;;;;;;;-3.37;nan;100833.38;5032389;28;20040;-70
2022/01/22 06:36:42;;;;;;;19.10;7.97;;;;;;;-3.40;nan;100819.91;5032213;28;20029;-69
2022/01/22 06:39:13;;;;;;;22.85;8.32;;;;;;;-3.37;nan;100819.69;5030549;28;20037;-70
2022/01/22 06:41:46;;;;;;;19.70;8.45;;;;;;;-3.37;nan;100810.19;5031652;28;20098;-71
2022/01/22 06:44:20;;;;;;;21.15;8.60;;;;;;;-3.32;nan;100826.09;5028713;28;20614;-71
2022/01/22 06:46:48;;;;;;;22.38;9.75;;;;;;;-3.33;nan;100819.28;5026924;28;20037;-70
2022/01/22 06:49:14;;;;;;;29.15;11.38;;;;;;;-3.31;nan;100816.59;5020564;28;20033;-69
2022/01/22 06:51:40;;;;;;;28.52;11.52;;;;;;;-3.39;nan;100791.47;5012271;28;20030;-70
2022/01/22 06:54:07;;;;;;;23.75;11.63;;;;;;;-3.27;nan;100800.78;5031387;28;20049;-70
2022/01/22 06:56:33;;;;;;;26.80;12.25;;;;;;;-3.33;nan;100792.72;5031218;28;20048;-70
2022/01/22 06:59:00;;;;;;;26.70;11.20;;;;;;;-3.21;nan;100802.03;5031894;28;20041;-70
2022/01/22 07:01:26;;;;;;;25.27;11.55;;;;;;;-3.21;nan;100805.44;5031529;28;20033;-69
2022/01/22 07:03:53;;;;;;;29.08;11.60;;;;;;;-3.17;nan;100803.41;5025694;28;20551;-71
2022/01/22 07:06:18;;;;;;;22.35;9.80;;;;;;;-3.15;nan;100798.97;4999479;28;20060;-71
2022/01/22 07:08:44;;;;;;;19.58;8.75;;;;;;;-3.14;nan;100786.91;5010468;28;20033;-69
2022/01/22 07:11:09;;;;;;;20.42;8.60;;;;;;;-3.12;nan;100785.81;5027329;28;20061;-70
2022/01/22 07:13:35;;;;;;;19.38;8.50;;;;;;;-3.06;nan;100790.47;5027135;28;20053;-69
2022/01/22 07:16:00;;;;;;;19.98;8.43;;;;;;;-3.11;nan;100779.75;5031829;28;20033;-71
2022/01/22 07:18:28;;;;;;;20.30;8.88;;;;;;;-3.12;nan;100772.94;5047975;28;20178;-70
2022/01/22 07:20:54;;;;;;;18.63;8.80;;;;;;;-3.01;nan;100790.09;5013722;28;20029;-69
2022/01/22 07:25:45;;;;;;;27.80;12.63;;;;;;;-2.89;nan;100796.00;5031252;28;20068;-69
2022/01/22 07:28:11;;;;;;;25.50;12.88;;;;;;;-2.89;nan;100801.97;5031770;28;20039;-69
2022/01/22 07:30:38;;;;;;;24.10;11.82;;;;;;;-2.83;nan;100805.78;5031974;28;20030;-69
2022/01/22 07:33:03;;;;;;;26.23;12.10;;;;;;;-2.92;nan;100791.91;5026130;28;20052;-70
2022/01/22 07:35:29;;;;;;;23.38;11.65;;;;;;;-2.82;nan;100791.97;5028580;28;20033;-69
2022/01/22 07:37:54;;;;;;;27.98;11.00;;;;;;;-2.88;nan;100771.84;5012429;28;20033;-70
2022/01/22 07:40:20;;;;;;;18.13;9.18;;;;;;;-2.71;nan;100796.22;5028480;28;20108;-69
2022/01/22 07:42:45;;;;;;;23.90;9.93;;;;;;;-2.78;nan;100770.13;5015018;28;20064;-69
2022/01/22 07:45:11;;;;;;;16.98;7.70;;;;;;;-2.72;nan;100781.72;5033762;28;20494;-69
2022/01/22 07:47:37;;;;;;;17.42;7.10;;;;;;;-2.57;nan;100801.03;5033180;28;20028;-68
2022/01/22 07:50:04;;;;;;;14.65;6.78;;;;;;;-2.54;nan;100800.75;5033531;28;20067;-68
2022/01/22 07:52:30;;;;;;;14.95;6.88;;;;;;;-2.54;nan;100803.34;5032990;28;20038;-68
2022/01/22 07:54:55;;;;;;;16.35;6.57;;;;;;;-2.50;nan;100811.66;5033883;28;20049;-69
2022/01/22 07:57:21;;;;;;;19.25;6.97;;;;;;;-2.43;nan;100815.34;5012054;28;20037;-69
2022/01/22 07:59:46;;;;;;;14.60;6.38;;;;;;;-2.38;nan;100818.34;5015246;28;20022;-71
2022/01/22 08:02:13;;;;;;;15.65;6.15;;;;;;;-2.50;nan;100791.00;5033437;28;20128;-73
2022/01/22 08:04:39;;;;;;;18.58;6.13;;;;;;;-2.32;nan;100809.25;5021286;28;20037;-73
2022/01/22 08:07:05;;;;;;;15.10;6.65;;;;;;;-2.28;nan;100808.06;5024572;28;20037;-72
2022/01/22 08:09:31;;;;;;;22.35;7.63;;;;;;;-2.43;nan;100780.03;5039742;28;20034;-72
2022/01/22 08:11:57;;;;;;;27.77;10.32;;;;;;;-2.26;nan;100801.81;5021639;28;20590;-73
2022/01/22 08:14:22;;;;;;;14.68;6.93;;;;;;;-2.20;nan;100803.06;5036270;28;20065;-73
2022/01/22 08:16:49;;;;;;;12.32;6.05;;;;;;;-2.27;nan;100786.47;5045050;28;20040;-72
2022/01/22 08:19:15;;;;;;;14.68;6.88;;;;;;;-2.26;nan;100793.25;5034912;28;20074;-71
2022/01/22 08:21:42;;;;;;;15.07;7.38;;;;;;;-2.15;nan;100795.75;5015779;28;20044;-72
2022/01/22 08:24:08;;;;;;;22.13;8.32;;;;;;;-2.11;nan;100812.56;5012914;28;20117;-74
2022/01/22 08:26:37;;;;;;;19.45;8.98;;;;;;;-2.12;nan;100802.41;5013860;28;20107;-76
2022/01/22 08:29:03;;;;;;;;;;;;;;;-2.00;nan;100822.78;5035398;28;20411;-74
2022/01/22 08:36:39;;;;;;;23.10;10.80;;;;;;;-2.01;nan;100810.00;5014881;28;20030;-71
2022/01/22 08:39:05;;;;;;;17.50;8.95;;;;;;;-1.84;nan;100834.38;5033907;28;20479;-73
2022/01/22 08:41:31;;;;;;;18.58;8.27;;;;;;;-1.82;nan;100835.88;5033867;28;20036;-71
2022/01/22 08:43:58;;;;;;;21.40;8.80;;;;;;;-1.75;nan;100838.72;5015184;28;20045;-71
2022/01/22 08:46:24;;;;;;;15.95;7.55;;;;;;;-1.72;nan;100841.88;5002856;28;20065;-70
2022/01/22 08:48:49;;;;;;;20.00;8.88;;;;;;;-1.70;nan;100836.56;4998927;28;20038;-74
2022/01/22 08:51:15;;;;;;;19.48;8.50;;;;;;;-1.78;nan;100829.47;5029634;28;20029;-74
2022/01/22 08:53:41;;;;;;;15.27;8.35;;;;;;;-1.78;nan;100821.72;5032477;28;20042;-74
2022/01/22 08:56:08;;;;;;;22.42;9.00;;;;;;;-1.61;nan;100847.84;5022020;28;20056;-74
2022/01/22 08:58:34;;;;;;;18.10;8.10;;;;;;;-1.69;nan;100833.03;5033729;28;20034;-76
2022/01/22 09:01:00;;;;;;;16.00;8.00;;;;;;;-1.57;nan;100842.28;5017614;28;20033;-76
2022/01/22 09:03:25;;;;;;;24.15;11.15;;;;;;;-1.59;nan;100844.19;5026791;28;20029;-75
2022/01/22 09:05:52;;;;;;;37.85;15.02;;;;;;;-1.47;nan;100851.81;5016492;28;20097;-77
2022/01/22 09:08:18;;;;;;;47.78;16.20;;;;;;;-1.44;nan;100846.38;5024185;28;20073;-77
2022/01/22 09:10:44;;;;;;;24.98;11.95;;;;;;;;;;5015510;28;20065;-77
2022/01/22 09:13:11;;;;;;;26.75;12.18;;;;;;;-1.39;nan;100828.69;5017381;28;20037;-77
2022/01/22 09:15:37;;;;;;;26.05;11.93;;;;;;;-1.21;nan;100847.72;5032859;28;20132;-77
2022/01/22 09:18:04;;;;;;;17.75;9.13;;;;;;;-1.34;nan;100827.34;5013890;28;20033;-79
2022/01/22 09:21:15;;;;;;;20.02;9.20;;;;;;;;;;5013846;28;20030;-79
2022/01/22 09:23:17;;;;;;;18.27;9.27;;;;;;;;;;5007667;28;20049;-77
2022/01/22 09:25:42;;;;;;;18.17;9.23;;;;;;;;;;5012007;28;20072;-68
2022/01/22 09:28:10;;;;;;;16.45;8.10;;;;;;;;;;5027772;28;20128;-69
2022/01/22 09:30:36;;;;;;;18.42;9.82;;;;;;;;;;5004513;28;20042;-69
2022/01/22 09:33:01;;;;;;;287.45;123.95;;;;;;;-0.63;nan;100859.72;5012659;28;20377;-69
2022/01/22 09:35:27;;;;;;;89.00;43.17;;;;;;;-0.54;nan;100850.31;5032475;28;20033;-69
2022/01/22 09:37:52;;;;;;;38.95;17.55;;;;;;;-0.56;nan;100854.81;5016995;28;20045;-79
2022/01/22 09:40:18;;;;;;;18.48;8.95;;;;;;;-0.57;nan;100855.78;5016880;28;20037;-76
2022/01/22 09:42:44;;;;;;;19.88;9.40;;;;;;;-0.67;nan;100829.94;5032852;28;20025;-68
2022/01/22 09:45:10;;;;;;;17.15;9.32;;;;;;;-0.64;nan;100850.34;5031649;28;20033;-69
2022/01/22 09:47:36;;;;;;;21.90;10.27;;;;;;;-0.65;nan;100834.03;5013418;28;20455;-69
2022/01/22 09:50:04;;;;;;;20.65;10.63;;;;;;;-0.63;nan;100835.66;4995487;28;20026;-68
2022/01/22 09:52:29;;;;;;;14.82;8.07;;;;;;;-0.67;nan;100828.19;5016649;28;20243;-68
2022/01/22 09:54:55;;;;;;;14.98;9.00;;;;;;;-0.66;nan;100834.97;5032228;28;20921;-68
2022/01/22 09:57:20;;;;;;;23.42;9.75;;;;;;;-0.62;nan;100824.34;5031900;28;20064;-67
2022/01/22 09:59:46;;;;;;;14.23;8.02;;;;;;;-0.58;nan;100830.88;5031914;28;20033;-68
2022/01/22 10:02:18;;;;;;;17.52;8.85;;;;;;;-0.65;nan;100828.03;5031554;28;20024;-67
2022/01/22 10:04:48;;;;;;;22.55;9.38;;;;;;;-0.64;nan;100819.31;5045301;28;20039;-69
2022/01/22 10:07:18;;;;;;;;;;;;;;;-0.62;nan;100824.34;5031202;28;20025;-67
2022/01/22 10:10:05;;;;;;;27.35;10.70;;;;;;;-0.53;nan;100813.94;5032077;28;19916;-68
2022/01/22 10:12:49;;;;;;;16.55;7.57;;;;;;;-0.63;nan;100809.78;5014814;28;20483;-69
2022/01/22 10:15:22;;;;;;;16.48;7.57;;;;;;;-0.63;nan;100805.44;5024833;28;20045;-69
2022/01/22 10:17:48;;;;;;;25.88;9.25;;;;;;;-0.60;nan;100805.13;5025637;28;20522;-69
2022/01/22 10:20:29;;;;;;;15.23;7.82;;;;;;;-0.70;nan;100801.78;5028460;28;20040;-72
2022/01/22 10:23:09;;;;;;;18.45;7.72;;;;;;;-0.73;nan;100802.88;5026662;28;20041;-68
2022/01/22 10:25:39;;;;;;;14.95;7.10;;;;;;;-0.74;nan;100793.50;5031767;28;20506;-69
2022/01/22 10:28:06;;;;;;;13.30;7.05;;;;;;;-0.71;nan;100792.41;5012696;28;20171;-71
2022/01/22 10:30:38;;;;;;;15.05;7.05;;;;;;;-0.70;nan;100781.09;5030156;28;20032;-68
2022/01/22 10:33:34;;;;;;;12.95;6.75;;;;;;;-0.61;nan;100788.00;5012824;28;20041;-70
2022/01/22 10:36:19;;;;;;;15.45;7.28;;;;;;;-0.56;nan;100787.56;5027849;28;20045;-69
2022/01/22 10:38:52;;;;;;;15.95;7.38;;;;;;;-0.45;nan;100792.56;5029520;28;20083;-69
2022/01/22 10:41:32;;;;;;;18.13;8.35;;;;;;;-0.39;nan;100791.97;5031462;28;20030;-70
2022/01/22 10:43:58;;;;;;;12.63;6.57;;;;;;;-0.39;nan;100796.34;5028705;28;20040;-69
2022/01/22 10:49:25;;;;;;;24.73;10.45;;;;;;;-0.40;nan;100787.78;5008616;28;20044;-70
2022/01/22 10:51:54;;;;;;;21.30;9.48;;;;;;;-0.49;nan;100778.28;5030040;28;20029;-70
2022/01/22 10:54:26;;;;;;;27.20;11.15;;;;;;;-0.46;nan;100785.75;5030430;28;20037;-69
2022/01/22 10:56:52;;;;;;;29.48;11.02;;;;;;;-0.46;nan;100783.97;5027741;28;20033;-69
2022/01/22 10:59:20;;;;;;;19.40;9.68;;;;;;;-0.48;nan;100778.16;5032637;28;20044;-69
2022/01/22 11:01:55;;;;;;;25.38;11.30;;;;;;;-0.55;nan;100759.00;5035208;28;20018;-70
2022/01/22 11:04:46;;;;;;;17.67;8.80;;;;;;;-0.40;nan;100780.00;5044694;28;20042;-70
2022/01/22 11:07:16;;;;;;;28.52;11.88;;;;;;;-0.47;nan;100766.03;5011518;28;20064;-75
2022/01/22 11:09:43;;;;;;;25.83;11.32;;;;;;;-0.46;nan;100771.03;5030761;28;20033;-76
2022/01/22 11:12:09;;;;;;;21.30;10.05;;;;;;;-0.43;nan;100778.53;5028635;28;20026;-75
2022/01/22 11:14:37;;;;;;;21.98;9.90;;;;;;;-0.48;nan;100766.97;5010110;28;20128;-76
2022/01/22 11:17:05;;;;;;;24.65;11.13;;;;;;;-0.59;nan;100774.94;5030278;28;20033;-75
2022/01/22 11:19:33;;;;;;;32.20;13.43;;;;;;;-0.56;nan;100779.81;5028318;28;20026;-76
2022/01/22 11:22:12;;;;;;;36.40;13.35;;;;;;;-0.61;nan;100780.22;5014658;28;20033;-69
2022/01/22 11:24:41;;;;;;;;;;;;;;;-0.66;nan;100785.84;5032545;28;20043;-76
2022/01/22 11:27:09;;;;;;;19.93;9.53;;;;;;;-0.74;nan;100783.16;5013849;28;19921;-70
2022/01/22 11:29:59;;;;;;;20.20;9.10;;;;;;;-0.67;nan;100794.56;5011767;28;20045;-70
2022/01/22 11:32:30;;;;;;;22.67;9.65;;;;;;;-0.67;nan;100785.97;5012092;28;20039;-69
2022/01/22 11:35:05;;;;;;;20.98;10.40;;;;;;;-0.62;nan;100791.56;5034341;28;20037;-69
2022/01/22 11:37:39;;;;;;;22.88;9.57;;;;;;;-0.64;nan;100785.69;5015993;28;20040;-75
2022/01/22 11:40:16;;;;;;;19.67;9.15;;;;;;;-0.68;nan;100777.41;5035273;28;20103;-68
2022/01/22 11:43:06;;;;;;;21.33;9.40;;;;;;;-0.57;nan;100801.47;5035752;28;20036;-76
2022/01/22 11:45:47;;;;;;;17.55;8.98;;;;;;;-0.58;nan;100803.22;5011945;28;20037;-75
2022/01/22 11:48:18;;;;;;;18.98;8.57;;;;;;;-0.60;nan;100796.56;5014957;28;20048;-75
2022/01/22 11:50:50;;;;;;;25.00;10.25;;;;;;;-0.63;nan;100813.19;5034913;28;20037;-75
2022/01/22 11:53:37;;;;;;;20.80;8.95;;;;;;;-0.63;nan;100813.19;5014137;28;20113;-76
2022/01/22 11:56:12;;;;;;;21.42;9.48;;;;;;;-0.64;nan;100808.97;5035941;28;20041;-76
2022/01/22 11:58:56;;;;;;;21.80;10.45;;;;;;;-0.62;nan;100819.16;5011551;28;20038;-70
2022/01/22 12:01:50;;;;;;;16.67;9.30;;;;;;;-0.59;nan;100813.72;5021029;28;20491;-74
2022/01/22 12:04:20;;;;;;;13.93;7.70;;;;;;;-0.68;nan;100805.84;5017830;28;20049;-69
2022/01/22 12:07:03;;;;;;;16.90;8.32;;;;;;;-0.54;nan;100806.34;5021759;28;20077;-70
2022/01/22 12:09:32;;;;;;;15.02;7.85;;;;;;;-0.58;nan;100797.25;5029360;28;20110;-75
2022/01/22 12:15:04;;;;;;;16.67;6.90;;;;;;;-0.34;nan;100807.06;5032480;28;20029;-69
2022/01/22 12:18:03;;;;;;;15.27;7.45;;;;;;;-0.29;nan;100810.03;5034137;28;20037;-77
2022/01/22 12:21:30;;;;;;;15.57;7.90;;;;;;;-0.33;nan;100804.34;5031963;28;20036;-73
2022/01/22 12:23:42;;;;;;;9.93;4.95;;;;;;;-0.35;nan;100814.03;5032882;28;20037;-76
2022/01/22 12:26:08;;;;;;;16.27;7.20;;;;;;;-0.41;nan;100796.47;4986804;28;20037;-73
2022/01/22 12:28:40;;;;;;;19.52;8.95;;;;;;;-0.33;nan;100811.31;5032556;28;20584;-74
2022/01/22 12:31:10;;;;;;;23.35;9.98;;;;;;;-0.19;nan;100822.94;5033343;28;20041;-76
2022/01/22 12:33:39;;;;;;;24.40;10.10;;;;;;;-0.13;nan;100825.75;5016347;28;20048;-74
2022/01/22 12:36:09;;;;;;;13.40;6.80;;;;;;;-0.08;nan;100815.78;5015710;28;20060;-75
2022/01/22 12:38:51;;;;;;;14.85;6.55;;;;;;;-0.24;nan;100785.38;5034598;28;20037;-76
2022/01/22 12:44:11;;;;;;;16.52;7.70;;;;;;;0.02;nan;100815.72;5031402;28;20547;-76
2022/01/22 12:46:37;;;;;;;17.75;7.57;;;;;;;0.10;nan;100828.78;5032411;28;20059;-75
2022/01/22 12:49:05;;;;;;;16.08;7.50;;;;;;;0.07;nan;100834.22;5033987;28;20033;-74
2022/01/22 12:51:31;;;;;;;14.35;7.13;;;;;;;0.01;nan;100829.66;5033716;28;20033;-74
2022/01/22 12:53:57;;;;;;;16.30;6.95;;;;;;;0.08;nan;100841.06;5033399;28;20556;-76
2022/01/22 12:59:06;;;;;;;25.00;9.45;;;;;;;0.02;nan;100846.78;5030298;28;20037;-73
2022/01/22 13:01:33;;;;;;;24.10;10.73;;;;;;;0.02;nan;100848.56;5012938;28;20026;-72
2022/01/22 13:04:06;;;;;;;26.73;10.45;;;;;;;-0.03;nan;100847.22;5033553;28;20038;-73
2022/01/22 13:06:52;;;;;;;22.30;9.48;;;;;;;-0.04;nan;100862.94;5032052;28;20040;-73
2022/01/22 13:09:17;;;;;;;24.25;10.40;;;;;;;-0.10;nan;100864.28;5014919;28;20065;-74
2022/01/22 13:11:52;;;;;;;30.58;11.85;;;;;;;-0.12;nan;100868.81;5014302;28;20469;-73
2022/01/22 13:14:29;;;;;;;33.30;12.77;;;;;;;-0.14;nan;100868.16;5013086;28;20109;-73
2022/01/22 13:16:56;;;;;;;31.75;11.82;;;;;;;-0.18;nan;100868.56;5031650;28;20057;-73
2022/01/22 13:19:24;;;;;;;23.70;11.15;;;;;;;-0.28;nan;100874.59;5032267;28;20026;-73
2022/01/22 13:21:52;;;;;;;17.30;9.00;;;;;;;-0.35;nan;100868.38;5013374;28;20061;-75
2022/01/22 13:24:24;;;;;;;22.48;10.52;;;;;;;-0.31;nan;100893.00;5030524;28;20046;-73
2022/01/22 13:27:02;;;;;;;38.13;15.07;;;;;;;-0.46;nan;100865.94;5026666;28;20029;-73
2022/01/22 13:29:28;;;;;;;29.23;12.52;;;;;;;-0.31;nan;100897.34;5029298;28;20503;-74